• Join FlightAware (Why Join?)
  • Login
  • US Flag 
08:06AM EDT


 

Airport Tracker/Info


-or-


 

Live Flight TrackerFlight Track Log ✈ EJA396 ✈ 12-Jun-2013 ✈ KGFL - KBLM

Flight Track Log - Related Links

Times and Time Zones

All times are in EDT time to prevent confusion due to time zone crossing. See the EJA396 flight status page for this flight to view local times or setup timezone preferences in your user account.

Time Position Orientation Groundspeed Altitude Reporting Facility
EDT Latitude Longitude Course Direction KTS MPH feet Rate Location/Type
04:46PM 43.3594 -73.6081 140° Southeast 155 178 1,900  Level Boston Center
04:47PM 43.3244 -73.5675 140° Southeast 157 181 3,900 1,980 Climbing Boston Center
04:48PM 43.2675 -73.6178 213° Southwest 191 220 6,000 2,820 Climbing Boston Center
04:49PM 43.1978 -73.7103 224° Southwest 271 312 10,200 3,240 Climbing Boston Center
04:50PM 43.1322 -73.7914 222° Southwest 329 379 13,200 3,540 Climbing Boston Center
04:51PM 43.0583 -73.8808 222° Southwest 359 413 17,300 3,300 Climbing Boston Center
04:52PM 42.9756 -73.9867 223° Southwest 359 413 19,900 1,320 Climbing Boston Center
04:53PM 42.8969 -74.0867 223° Southwest 374 430 20,000  Climbing Boston Center
04:54PM 42.8206 -74.1781 221° Southwest 386 444 20,000  Level Boston Center
04:55PM 42.7378 -74.2833 223° Southwest 399 459 20,000  Level Boston Center
04:56PM 42.6569 -74.3825 222° Southwest 399 459 20,000  Level Boston Center
04:57PM 42.5758 -74.4814 222° Southwest 394 453 20,000  Level Boston Center
04:58PM 42.4947 -74.5803 222° Southwest 394 453 20,000  Level Boston Center
04:59PM 42.4181 -74.6731 222° Southwest 389 448 20,000 -360 Level Boston Center
05:00PM 42.3347 -74.7742 222° Southwest 389 448 19,300 -480 Descending Boston Center
05:01PM 42.2364 -74.8911 221° Southwest 395 455 19,000 -180 Descending Boston Center
05:02PM 42.1531 -74.9831 219° Southwest 395 455 19,000  Level Boston Center
05:04PM 41.9131 -75.1606 209° Southwest 384 442 19,000  Level New York Center
05:05PM 41.8314 -75.2275 211° Southwest 384 442 19,000 -480 Level New York Center
05:06PM 41.7542 -75.3392 227° Southwest 378 435 18,100 -900 Descending New York Center
05:07PM 41.6900 -75.4375 229° Southwest 372 428 17,300 -660 Descending New York Center
05:08PM 41.6236 -75.5356 228° Southwest 365 420 16,900 -1,080 Descending New York Center
05:09PM 41.5500 -75.6081 216° Southwest 365 420 15,200 -1,620 Descending New York Center
05:10PM 41.4467 -75.6392 193° South 370 426 13,700 -1,500 Descending New York Center
05:11PM 41.3456 -75.6678 192° South 376 433 12,200 -960 Descending New York Center
05:12PM 41.2328 -75.6706 181° South 376 433 11,800 -780 Descending New York Center
05:13PM 41.1367 -75.6306 163° South 376 433 10,700 -1,140 Descending New York Center
05:14PM 41.0467 -75.5911 162° South 354 407 9,600 -900 Descending New York Center
05:15PM 40.9625 -75.5578 163° South 324 373 9,000 -600 Descending New York Center
05:16PM 40.8806 -75.5217 162° South 319 367 8,400 -720 Descending New York Center
05:17PM 40.7986 -75.4858 162° South 319 367 7,600 -1,020 Descending New York Center
05:18PM 40.7189 -75.4475 160° South 313 360 6,500 -1,020 Descending New York Center
05:19PM 40.6525 -75.3911 147° Southeast 302 348 5,600 -780 Descending New York Center
05:20PM 40.5858 -75.3347 147° Southeast 282 325 5,000 -300 Descending New York Center
05:21PM 40.5192 -75.2783 147° Southeast 282 325 5,000  Level New York Center
05:22PM 40.4647 -75.2311 147° Southeast 287 330 5,000  Level New York Center
05:23PM 40.3922 -75.1692 147° Southeast 282 325 5,000  Level New York Center
05:24PM 40.3275 -75.1106 145° Southeast 287 330 5,000  Level New York Center
05:25PM 40.2914 -75.0186 117° Southeast 280 322 5,000 -300 Level New York Center
05:26PM 40.2611 -74.9325 115° Southeast 285 328 4,500 -540 Descending New York Center
05:27PM 40.2439 -74.8308 102° East 273 314 4,000 -300 Descending New York Center
05:28PM 40.2306 -74.7294 100° East 268 308 4,000 -540 Level New York Center
05:29PM 40.2192 -74.6308 99° East 268 308 3,000 -1,020 Descending New York Center
05:30PM 40.2100 -74.5325 97° East 273 314 2,000 -540 Descending New York Center
05:31PM 40.2044 -74.4425 95° East 265 305 2,000  Level New York Center
05:32PM 40.1925 -74.3578 100° East 247 284 2,000  Level New York Center
05:33PM 40.1881 -74.2950 95° East 210 242 2,000 -120 Level New York Center
05:34PM 40.1861 -74.2189 92° East 186 214 1,800 -180 Descending New York Center
05:35PM 40.1669 -74.1661 115° Southeast 163 188 1,700 -180 Descending New York Center
05:36PM 40.1475 -74.1164 117° Southeast 156 180 1,500 -240 Descending New York Center
05:38PM 40.1833 -74.1167 346° North  Level FlightAware Approximate
05:45PM 40.1867 -74.1246 346° North  Level Estimated
05:46PM 40.1833 -74.1167 346° North  Level FlightAware Approximate
05:47PM 40.1867 -74.1246 346° North  Level Estimated
05:48PM 40.1833 -74.1167 346° North  Level FlightAware Approximate
05:49PM 40.1867 -74.1246 346° North  Level Estimated
05:50PM 40.1833 -74.1167 346° North  Level FlightAware Approximate
05:51PM 40.1867 -74.1246 346° North  Level Estimated
05:52PM 40.1833 -74.1167 346° North  Level FlightAware Approximate
05:53PM 40.1867 -74.1246 346° North  Level Estimated